createdAt,value
2019-05-18T00:01:33.012Z,59.90
2019-05-18T00:04:01.576Z,58.80
2019-05-18T00:06:30.123Z,58.67
2019-05-18T00:08:58.774Z,59.83
2019-05-18T00:11:27.555Z,59.50
2019-05-18T00:13:56.244Z,58.17
2019-05-18T00:16:24.950Z,58.60
2019-05-18T00:18:53.718Z,57.60
2019-05-18T00:21:22.403Z,57.63
2019-05-18T00:23:51.139Z,56.67
2019-05-18T00:26:20.928Z,57.17
2019-05-18T00:28:49.627Z,57.43
2019-05-18T00:31:18.353Z,57.90
2019-05-18T00:33:46.963Z,56.10
2019-05-18T00:36:15.591Z,54.73
2019-05-18T00:38:44.218Z,54.77
2019-05-18T00:41:12.943Z,56.20
2019-05-18T00:43:41.652Z,56.83
2019-05-18T00:46:10.347Z,56.33
2019-05-18T00:48:39.031Z,53.83
2019-05-18T00:51:07.734Z,54.90
2019-05-18T00:53:37.255Z,52.67
2019-05-18T00:56:06.070Z,55.93
2019-05-18T00:58:34.715Z,56.70
2019-05-18T01:01:03.444Z,56.47
2019-05-18T01:03:32.143Z,55.90
2019-05-18T01:06:00.772Z,56.87
2019-05-18T01:08:29.351Z,53.40
2019-05-18T01:10:58.047Z,56.63
2019-05-18T01:13:26.885Z,54.23
2019-05-18T01:15:55.602Z,55.63
2019-05-18T01:18:24.229Z,53.07
2019-05-18T01:20:52.926Z,52.47
2019-05-18T01:23:21.591Z,52.43
2019-05-18T01:25:50.287Z,55.07
2019-05-18T01:28:19.719Z,52.20
2019-05-18T01:30:48.477Z,53.23
2019-05-18T01:33:17.176Z,53.80
2019-05-18T01:35:45.877Z,52.97
2019-05-18T01:38:14.462Z,51.63
2019-05-18T01:40:43.090Z,53.97
2019-05-18T01:43:11.725Z,53.50
2019-05-18T01:45:40.315Z,52.87
2019-05-18T01:48:13.769Z,55.93
2019-05-18T01:50:39.158Z,52.77
2019-05-18T01:53:07.819Z,52.93
2019-05-18T01:55:36.386Z,52.33
2019-05-18T01:58:05.081Z,50.73
2019-05-18T02:00:33.828Z,52.03
2019-05-18T02:03:02.461Z,52.43
2019-05-18T02:05:31.091Z,52.47
2019-05-18T02:07:59.748Z,52.80
2019-05-18T02:10:30.722Z,51.13
2019-05-18T02:13:01.735Z,50.00
2019-05-18T02:15:30.440Z,52.27
2019-05-18T02:17:58.997Z,54.43
2019-05-18T02:20:27.634Z,53.70
2019-05-18T02:22:56.290Z,53.93
2019-05-18T02:25:24.851Z,52.73
2019-05-18T02:27:53.408Z,51.70
2019-05-18T02:30:22.155Z,54.37
2019-05-18T02:32:50.795Z,52.30
2019-05-18T02:35:19.494Z,52.80
2019-05-18T02:37:48.094Z,52.37
2019-05-18T02:40:16.891Z,51.40
2019-05-18T02:42:45.525Z,49.67
2019-05-18T02:45:14.359Z,51.77
2019-05-18T02:47:44.503Z,53.00
2019-05-18T02:50:13.213Z,53.60
2019-05-18T02:52:41.788Z,49.67
2019-05-18T02:55:12.251Z,46.50
2019-05-18T02:57:40.965Z,50.03
2019-05-18T03:00:10.189Z,50.17
2019-05-18T03:02:38.841Z,49.83
2019-05-18T03:05:07.738Z,48.40
2019-05-18T03:07:36.461Z,48.53
2019-05-18T03:10:06.447Z,52.37
2019-05-18T03:12:35.159Z,51.70
2019-05-18T03:15:04.532Z,53.33
2019-05-18T03:17:33.312Z,50.63
2019-05-18T03:20:01.963Z,52.00
2019-05-18T03:22:30.663Z,53.33
2019-05-18T03:24:59.794Z,52.87
2019-05-18T03:27:28.414Z,53.73
2019-05-18T03:29:56.980Z,53.73
2019-05-18T03:32:26.680Z,53.47
2019-05-18T03:34:55.296Z,53.60
2019-05-18T03:37:25.195Z,55.80
2019-05-18T03:39:55.311Z,52.20
2019-05-18T03:42:24.015Z,52.53
2019-05-18T03:44:52.715Z,51.10
2019-05-18T03:47:21.386Z,52.53
2019-05-18T03:49:50.022Z,49.50
2019-05-18T03:52:18.647Z,49.97
2019-05-18T03:54:48.452Z,48.77
2019-05-18T03:57:17.078Z,47.67
2019-05-18T03:59:46.779Z,47.80
2019-05-18T04:02:15.382Z,46.93
2019-05-18T04:04:45.471Z,45.00
2019-05-18T04:07:14.036Z,43.07
2019-05-18T04:09:42.694Z,45.03
2019-05-18T04:12:11.243Z,42.47
2019-05-18T04:14:39.902Z,44.17
2019-05-18T04:17:08.635Z,45.07
2019-05-18T04:19:46.338Z,45.47
2019-05-18T04:22:07.692Z,44.57
2019-05-18T04:24:36.367Z,45.37
2019-05-18T04:27:06.492Z,45.60
2019-05-18T04:29:35.120Z,42.63
2019-05-18T04:32:03.698Z,43.90
2019-05-18T04:34:32.320Z,42.50
2019-05-18T04:37:00.929Z,41.50
2019-05-18T04:39:29.448Z,38.47
2019-05-18T04:41:58.012Z,34.43
2019-05-18T04:44:26.581Z,33.10
2019-05-18T04:46:55.428Z,31.13
2019-05-18T04:49:24.048Z,30.73
2019-05-18T04:51:52.606Z,27.67
2019-05-18T04:54:21.207Z,29.00
2019-05-18T04:56:49.831Z,26.80
2019-05-18T04:59:18.525Z,26.53
2019-05-18T05:01:47.256Z,26.83
2019-05-18T05:04:15.867Z,25.33
2019-05-18T05:06:44.432Z,26.60
2019-05-18T05:09:13.103Z,25.73
2019-05-18T05:11:41.723Z,27.25
2019-05-18T05:14:10.351Z,25.82
2019-05-18T05:16:39.119Z,25.72
2019-05-18T05:19:08.798Z,26.23
2019-05-18T05:21:37.462Z,24.55
2019-05-18T05:24:06.025Z,23.35
2019-05-18T05:26:34.789Z,23.60
2019-05-18T05:29:03.534Z,23.02
2019-05-18T05:31:32.111Z,22.35
2019-05-18T05:34:00.740Z,20.97
2019-05-18T05:36:29.330Z,21.62
2019-05-18T05:38:58.022Z,20.65
2019-05-18T05:41:26.643Z,20.37
2019-05-18T05:43:55.316Z,19.92
2019-05-18T05:46:24.011Z,19.40
2019-05-18T05:48:52.635Z,19.48
2019-05-18T05:51:21.218Z,19.37
2019-05-18T05:53:49.779Z,18.75
2019-05-18T05:56:18.403Z,19.10
2019-05-18T05:58:46.990Z,18.65
2019-05-18T06:01:15.680Z,18.98
2019-05-18T06:03:44.414Z,18.95
2019-05-18T06:06:13.111Z,18.75
2019-05-18T06:08:41.735Z,16.90
2019-05-18T06:11:10.388Z,17.32
2019-05-18T06:13:39.014Z,18.15
2019-05-18T06:16:07.605Z,18.75
2019-05-18T06:18:36.205Z,18.52
2019-05-18T06:21:04.956Z,19.48
2019-05-18T06:23:33.583Z,18.42
2019-05-18T06:26:02.251Z,17.92
2019-05-18T06:28:30.814Z,18.12
2019-05-18T06:30:59.376Z,18.27
2019-05-18T06:33:28.034Z,18.15
2019-05-18T06:35:56.603Z,18.48
2019-05-18T06:38:25.223Z,20.27
2019-05-18T06:40:53.810Z,21.00
2019-05-18T06:43:22.443Z,21.37
2019-05-18T06:45:51.063Z,21.30
2019-05-18T06:48:19.867Z,23.50
2019-05-18T06:50:48.662Z,22.52
2019-05-18T06:53:17.283Z,23.30
2019-05-18T06:55:45.929Z,21.75
2019-05-18T06:58:15.380Z,21.55
2019-05-18T07:00:43.994Z,21.42
2019-05-18T07:03:12.703Z,19.70
2019-05-18T07:05:41.335Z,19.92
2019-05-18T07:08:09.985Z,20.02
2019-05-18T07:10:38.551Z,19.48
2019-05-18T07:13:07.178Z,19.32
2019-05-18T07:15:35.812Z,19.82
2019-05-18T07:18:04.562Z,19.30
2019-05-18T07:20:33.256Z,19.07
2019-05-18T07:23:01.825Z,18.35
2019-05-18T07:25:30.459Z,17.65
2019-05-18T07:27:59.092Z,17.45
2019-05-18T07:30:27.707Z,16.12
2019-05-18T07:32:57.373Z,16.12
2019-05-18T07:35:25.923Z,16.52
2019-05-18T07:37:54.516Z,16.40
2019-05-18T07:40:23.147Z,16.50
2019-05-18T07:42:51.672Z,16.73
2019-05-18T07:45:20.375Z,16.37
2019-05-18T07:47:50.336Z,15.48
2019-05-18T07:50:19.139Z,15.60
2019-05-18T07:52:47.701Z,14.55
2019-05-18T07:55:16.435Z,15.63
2019-05-18T07:57:45.043Z,15.30
2019-05-18T08:00:13.741Z,15.08
2019-05-18T08:02:42.394Z,15.95
2019-05-18T08:05:11.516Z,15.98
2019-05-18T08:07:40.211Z,15.48
2019-05-18T08:10:09.240Z,15.88
2019-05-18T08:12:37.935Z,15.18
2019-05-18T08:15:09.337Z,14.53
2019-05-18T08:17:37.989Z,16.02
2019-05-18T08:20:07.365Z,15.80
2019-05-18T08:22:36.047Z,15.50
2019-05-18T08:25:06.974Z,16.17
2019-05-18T08:27:35.599Z,14.30
2019-05-18T08:30:05.899Z,15.10
2019-05-18T08:32:34.560Z,13.55
2019-05-18T08:35:03.625Z,15.38
2019-05-18T08:37:32.275Z,15.80
2019-05-18T08:40:00.926Z,15.78
2019-05-18T08:42:29.554Z,16.02
2019-05-18T08:44:58.113Z,17.55
2019-05-18T08:47:26.698Z,18.80
2019-05-18T08:49:55.255Z,19.32
2019-05-18T08:52:23.802Z,18.57
2019-05-18T08:54:52.380Z,17.07
2019-05-18T08:57:20.948Z,15.65
2019-05-18T08:59:49.538Z,15.20
2019-05-18T09:02:18.095Z,16.82
2019-05-18T09:04:46.725Z,15.08
2019-05-18T09:07:15.414Z,14.93
2019-05-18T09:09:44.142Z,13.08
2019-05-18T09:12:12.695Z,15.03
2019-05-18T09:14:41.405Z,14.43
2019-05-18T09:17:10.066Z,13.85
2019-05-18T09:19:38.623Z,13.53
2019-05-18T09:22:07.319Z,14.43
2019-05-18T09:24:35.903Z,12.43
2019-05-18T09:27:04.596Z,11.57
2019-05-18T09:29:33.219Z,10.88
2019-05-18T09:32:01.968Z,10.43
2019-05-18T09:34:30.510Z,11.83
2019-05-18T09:36:59.065Z,10.95
2019-05-18T09:39:27.664Z,13.28
2019-05-18T09:41:56.291Z,12.75
2019-05-18T09:44:24.843Z,14.03
2019-05-18T09:46:53.506Z,12.05
2019-05-18T09:49:22.190Z,12.07
2019-05-18T09:51:50.884Z,14.50
2019-05-18T09:54:19.461Z,13.05
2019-05-18T09:56:48.083Z,13.25
2019-05-18T09:59:16.710Z,11.90
2019-05-18T10:01:45.295Z,12.53
2019-05-18T10:04:13.922Z,11.18
2019-05-18T10:06:42.479Z,11.40
2019-05-18T10:09:11.210Z,10.55
2019-05-18T10:11:39.772Z,11.35
2019-05-18T10:14:08.386Z,10.08
2019-05-18T10:16:36.996Z,10.15
2019-05-18T10:19:05.688Z,18.27
2019-05-18T10:21:34.360Z,16.60
2019-05-18T10:24:03.050Z,16.95
2019-05-18T10:26:31.609Z,17.40
2019-05-18T10:29:00.320Z,15.20
2019-05-18T10:31:28.966Z,14.63
2019-05-18T10:33:57.648Z,12.82
2019-05-18T10:36:26.407Z,10.40
2019-05-18T10:38:54.960Z,9.45
2019-05-18T10:41:23.610Z,10.50
2019-05-18T10:43:52.238Z,9.43
2019-05-18T10:46:20.795Z,8.85
2019-05-18T10:48:49.521Z,9.13
2019-05-18T10:51:18.156Z,12.47
2019-05-18T10:53:46.710Z,9.95
2019-05-18T10:56:15.283Z,9.88
2019-05-18T10:58:43.984Z,9.73
2019-05-18T11:01:12.594Z,9.90
2019-05-18T11:03:41.191Z,10.95
2019-05-18T11:06:09.875Z,12.40
2019-05-18T11:08:38.607Z,11.83
2019-05-18T11:11:07.319Z,11.50
2019-05-18T11:13:35.870Z,11.40
2019-05-18T11:16:04.655Z,10.25
2019-05-18T11:18:33.330Z,10.75
2019-05-18T11:21:01.978Z,11.63
2019-05-18T11:23:42.871Z,10.60
2019-05-18T11:26:00.806Z,10.35
2019-05-18T11:28:29.435Z,9.85
2019-05-18T11:30:57.994Z,10.30
2019-05-18T11:33:26.648Z,11.73
2019-05-18T11:35:55.273Z,12.00
2019-05-18T11:38:24.492Z,10.82
2019-05-18T11:40:53.150Z,10.72
2019-05-18T11:43:21.704Z,10.03
2019-05-18T11:45:50.395Z,11.05
2019-05-18T11:48:19.061Z,11.45
2019-05-18T11:50:47.756Z,11.15
2019-05-18T11:53:16.449Z,11.08
2019-05-18T11:55:45.180Z,10.03
2019-05-18T11:58:13.850Z,9.65
2019-05-18T12:00:42.553Z,9.70
2019-05-18T12:03:11.266Z,9.48
2019-05-18T12:05:39.895Z,10.70
2019-05-18T12:08:08.529Z,10.75
2019-05-18T12:10:37.202Z,11.38
2019-05-18T12:13:05.903Z,10.93
2019-05-18T12:15:34.590Z,10.13
2019-05-18T12:18:03.229Z,9.60
2019-05-18T12:20:31.914Z,8.83
2019-05-18T12:23:00.468Z,9.30
2019-05-18T12:25:29.140Z,8.35
2019-05-18T12:27:57.802Z,9.25
2019-05-18T12:30:26.554Z,7.92
2019-05-18T12:32:55.279Z,7.70
2019-05-18T12:35:24.984Z,8.35
2019-05-18T12:37:53.540Z,8.25
2019-05-18T12:40:22.763Z,8.95
2019-05-18T12:42:51.469Z,9.08
2019-05-18T12:45:20.556Z,7.17
2019-05-18T12:47:49.289Z,6.35
2019-05-18T12:50:20.043Z,6.97
2019-05-18T12:52:48.734Z,6.40
2019-05-18T12:55:18.367Z,7.03
2019-05-18T12:57:47.098Z,6.53
2019-05-18T13:00:17.584Z,5.70
2019-05-18T13:02:46.282Z,5.47
2019-05-18T13:05:15.880Z,6.08
2019-05-18T13:07:44.428Z,5.70
2019-05-18T13:10:13.647Z,6.15
2019-05-18T13:12:42.209Z,6.00
2019-05-18T13:15:12.351Z,5.37
2019-05-18T13:17:41.078Z,6.70
2019-05-18T13:20:11.834Z,5.90
2019-05-18T13:22:42.273Z,6.60
2019-05-18T13:25:11.498Z,5.40
2019-05-18T13:27:40.372Z,5.80
2019-05-18T13:30:11.064Z,5.87
2019-05-18T13:32:39.779Z,7.40
2019-05-18T13:35:08.958Z,5.25
2019-05-18T13:37:37.655Z,6.50
2019-05-18T13:40:07.811Z,5.00
2019-05-18T13:42:36.441Z,5.00
2019-05-18T13:45:07.794Z,5.67
2019-05-18T13:47:36.515Z,5.60
2019-05-18T13:50:05.926Z,5.17
2019-05-18T13:52:34.631Z,5.35
2019-05-18T13:55:05.162Z,5.87
2019-05-18T13:57:34.109Z,5.37
2019-05-18T14:00:02.856Z,5.28
2019-05-18T14:02:31.494Z,5.60
2019-05-18T14:05:00.065Z,5.85
2019-05-18T14:07:28.716Z,5.30
2019-05-18T14:09:57.392Z,4.90
2019-05-18T14:12:26.011Z,5.20
2019-05-18T14:14:54.635Z,5.45
2019-05-18T14:17:23.279Z,5.70
2019-05-18T14:19:51.984Z,5.30
2019-05-18T14:22:20.545Z,5.10
2019-05-18T14:24:49.105Z,4.95
2019-05-18T14:27:18.770Z,5.78
2019-05-18T14:29:47.327Z,5.50
2019-05-18T14:32:15.918Z,5.30
2019-05-18T14:34:44.483Z,5.33
2019-05-18T14:37:13.171Z,4.83
2019-05-18T14:39:41.884Z,4.83
2019-05-18T14:42:10.508Z,4.75
2019-05-18T14:44:39.144Z,5.42
2019-05-18T14:47:07.883Z,4.80
2019-05-18T14:49:36.494Z,4.95
2019-05-18T14:52:06.374Z,4.40
2019-05-18T14:54:34.920Z,5.10
2019-05-18T14:57:03.606Z,5.25
2019-05-18T14:59:32.303Z,4.40
2019-05-18T15:02:00.912Z,4.10
2019-05-18T15:04:29.460Z,4.03
2019-05-18T15:06:58.083Z,4.10
2019-05-18T15:09:26.825Z,4.28
2019-05-18T15:11:55.422Z,3.90
2019-05-18T15:14:24.005Z,4.47
2019-05-18T15:16:53.154Z,4.20
2019-05-18T15:19:21.736Z,3.75
2019-05-18T15:21:50.621Z,4.05
2019-05-18T15:24:19.299Z,3.90
2019-05-18T15:26:47.987Z,4.47
2019-05-18T15:29:16.602Z,4.12
2019-05-18T15:31:45.391Z,3.70
2019-05-18T15:34:14.007Z,3.95
2019-05-18T15:36:42.604Z,4.20
2019-05-18T15:39:11.300Z,3.95
2019-05-18T15:41:39.907Z,3.98
2019-05-18T15:44:08.560Z,5.33
2019-05-18T15:46:37.108Z,4.40
2019-05-18T15:49:05.809Z,4.78
2019-05-18T15:51:34.522Z,6.15
2019-05-18T15:54:03.202Z,4.60
2019-05-18T15:56:31.779Z,4.17
2019-05-18T15:59:00.470Z,4.22
2019-05-18T16:01:28.947Z,4.20
2019-05-18T16:03:57.663Z,4.70
2019-05-18T16:06:26.346Z,4.80
2019-05-18T16:08:55.035Z,4.20
2019-05-18T16:11:23.678Z,4.62
2019-05-18T16:13:52.381Z,4.17
2019-05-18T16:16:21.185Z,4.05
2019-05-18T16:18:49.721Z,4.45
2019-05-18T16:21:18.330Z,5.75
2019-05-18T16:23:46.976Z,4.80
2019-05-18T16:26:21.521Z,4.33
2019-05-18T16:28:45.960Z,5.60
2019-05-18T16:31:14.575Z,7.28
2019-05-18T16:33:43.278Z,6.83
2019-05-18T16:36:11.931Z,4.80
2019-05-18T16:38:40.542Z,4.00
2019-05-18T16:41:09.092Z,4.03
2019-05-18T16:43:37.676Z,4.30
2019-05-18T16:46:06.376Z,4.60
2019-05-18T16:48:34.922Z,4.20
2019-05-18T16:51:03.567Z,4.20
2019-05-18T16:53:32.192Z,4.83
2019-05-18T16:56:00.740Z,5.30
2019-05-18T16:58:29.416Z,10.48
2019-05-18T17:00:58.038Z,7.55
2019-05-18T17:03:26.580Z,21.15
2019-05-18T17:05:55.236Z,8.80
2019-05-18T17:08:23.795Z,5.20
2019-05-18T17:10:52.403Z,4.58
2019-05-18T17:13:21.115Z,4.92
2019-05-18T17:15:49.812Z,4.78
2019-05-18T17:18:18.434Z,4.70
2019-05-18T17:20:47.053Z,5.00
2019-05-18T17:23:15.707Z,6.72
2019-05-18T17:25:44.413Z,6.58
2019-05-18T17:28:13.098Z,9.00
2019-05-18T17:30:42.787Z,8.13
2019-05-18T17:33:11.509Z,11.33
2019-05-18T17:35:40.203Z,10.50
2019-05-18T17:38:08.866Z,10.35
2019-05-18T17:40:37.490Z,8.85
2019-05-18T17:43:06.178Z,7.65
2019-05-18T17:45:34.775Z,5.87
2019-05-18T17:48:03.458Z,7.47
2019-05-18T17:50:32.069Z,8.85
2019-05-18T17:53:00.652Z,6.40
2019-05-18T17:55:29.272Z,6.30
2019-05-18T17:57:58.075Z,7.10
2019-05-18T18:00:26.719Z,6.37
2019-05-18T18:02:55.278Z,5.47
2019-05-18T18:05:23.912Z,5.10
2019-05-18T18:07:55.446Z,5.33
2019-05-18T18:10:22.910Z,5.22
2019-05-18T18:12:51.395Z,5.97
2019-05-18T18:15:20.134Z,5.28
2019-05-18T18:17:50.469Z,5.40
2019-05-18T18:20:19.284Z,5.30
2019-05-18T18:22:47.859Z,5.70
2019-05-18T18:25:16.405Z,5.53
2019-05-18T18:27:45.104Z,5.65
2019-05-18T18:30:14.818Z,5.55
2019-05-18T18:32:43.434Z,6.35
2019-05-18T18:35:12.203Z,5.58
2019-05-18T18:37:40.863Z,5.80
2019-05-18T18:40:09.867Z,6.08
2019-05-18T18:42:38.892Z,6.70
2019-05-18T18:45:08.021Z,6.17
2019-05-18T18:47:36.708Z,6.37
2019-05-18T18:50:06.964Z,6.40
2019-05-18T18:52:35.610Z,6.92
2019-05-18T18:55:05.809Z,6.87
2019-05-18T18:57:41.284Z,6.97
2019-05-18T19:00:07.039Z,7.47
2019-05-18T19:02:35.728Z,7.17
2019-05-18T19:05:05.927Z,7.80
2019-05-18T19:07:34.571Z,7.50
2019-05-18T19:10:03.283Z,7.30
2019-05-18T19:12:31.812Z,8.33
2019-05-18T19:15:00.525Z,7.67
2019-05-18T19:17:29.219Z,7.97
2019-05-18T19:19:57.839Z,8.93
2019-05-18T19:22:26.507Z,8.90
2019-05-18T19:24:55.880Z,9.93
2019-05-18T19:27:24.580Z,13.70
2019-05-18T19:29:53.317Z,14.97
2019-05-18T19:32:21.859Z,14.00
2019-05-18T19:34:50.487Z,14.47
2019-05-18T19:37:19.056Z,11.83
2019-05-18T19:39:47.755Z,9.87
2019-05-18T19:42:16.374Z,9.63
2019-05-18T19:44:45.080Z,9.67
2019-05-18T19:47:13.772Z,10.57
2019-05-18T19:49:42.402Z,11.53
2019-05-18T19:52:10.991Z,10.77
2019-05-18T19:54:39.619Z,11.63
2019-05-18T19:57:08.307Z,10.33
2019-05-18T19:59:36.911Z,9.63
2019-05-18T20:02:05.615Z,9.80
2019-05-18T20:04:34.265Z,9.80
2019-05-18T20:07:02.823Z,10.40
2019-05-18T20:09:31.460Z,11.03
2019-05-18T20:12:00.015Z,11.00
2019-05-18T20:14:28.610Z,12.00
2019-05-18T20:16:57.321Z,12.33
2019-05-18T20:19:38.201Z,12.07
2019-05-18T20:21:56.231Z,12.27
2019-05-18T20:24:24.850Z,13.27
2019-05-18T20:26:53.411Z,12.17
2019-05-18T20:29:22.059Z,12.60
2019-05-18T20:31:50.623Z,12.23
2019-05-18T20:34:19.192Z,12.20
2019-05-18T20:36:47.934Z,12.37
2019-05-18T20:39:16.478Z,13.57
2019-05-18T20:41:45.109Z,13.00
2019-05-18T20:44:13.772Z,12.63
2019-05-18T20:46:42.401Z,13.10
2019-05-18T20:49:11.088Z,13.57
2019-05-18T20:51:39.674Z,13.10
2019-05-18T20:54:08.299Z,12.27
2019-05-18T20:56:36.927Z,12.77
2019-05-18T20:59:05.660Z,12.10
2019-05-18T21:01:34.289Z,12.13
2019-05-18T21:04:02.982Z,12.63
2019-05-18T21:06:31.656Z,12.33
2019-05-18T21:09:00.352Z,12.67
2019-05-18T21:11:28.980Z,13.57
2019-05-18T21:13:57.931Z,14.00
2019-05-18T21:16:26.487Z,14.47
2019-05-18T21:18:55.125Z,13.60
2019-05-18T21:21:25.989Z,13.00
2019-05-18T21:23:54.619Z,13.07
2019-05-18T21:26:23.438Z,14.50
2019-05-18T21:28:57.579Z,13.37
2019-05-18T21:31:22.291Z,13.03
2019-05-18T21:33:51.004Z,13.87
2019-05-18T21:36:19.578Z,13.27
2019-05-18T21:38:48.136Z,13.33
2019-05-18T21:41:16.763Z,13.63
2019-05-18T21:43:45.338Z,13.10
2019-05-18T21:46:14.248Z,13.63
2019-05-18T21:48:42.799Z,13.23
2019-05-18T21:51:11.662Z,15.17
2019-05-18T21:53:40.421Z,14.30
2019-05-18T21:56:09.035Z,15.40
2019-05-18T21:58:37.788Z,14.63
2019-05-18T22:01:06.994Z,15.73
2019-05-18T22:03:35.581Z,15.90
2019-05-18T22:06:04.314Z,15.63
2019-05-18T22:08:32.998Z,14.67
2019-05-18T22:11:01.616Z,15.70
2019-05-18T22:13:30.198Z,14.93
2019-05-18T22:15:58.823Z,14.67
2019-05-18T22:18:27.390Z,16.87
2019-05-18T22:20:55.964Z,15.90
2019-05-18T22:23:24.589Z,16.20
2019-05-18T22:25:56.686Z,15.70
2019-05-18T22:28:23.388Z,14.50
2019-05-18T22:30:51.957Z,16.47
2019-05-18T22:33:20.642Z,15.97
2019-05-18T22:35:49.250Z,15.77
2019-05-18T22:38:19.188Z,15.30
2019-05-18T22:40:48.198Z,16.77
2019-05-18T22:43:16.898Z,16.53
2019-05-18T22:45:46.993Z,18.80
2019-05-18T22:48:15.613Z,19.70
2019-05-18T22:50:44.283Z,20.83
2019-05-18T22:53:13.028Z,17.80
2019-05-18T22:55:41.714Z,20.87
2019-05-18T22:58:10.275Z,19.77
2019-05-18T23:00:38.908Z,18.40
2019-05-18T23:03:07.488Z,17.57
2019-05-18T23:05:36.687Z,16.27
2019-05-18T23:08:05.385Z,17.53
2019-05-18T23:10:34.143Z,20.43
2019-05-18T23:13:02.763Z,17.83
2019-05-18T23:15:31.455Z,18.60
2019-05-18T23:18:00.027Z,16.77
2019-05-18T23:20:28.656Z,17.07
2019-05-18T23:22:57.260Z,17.87
2019-05-18T23:25:25.810Z,18.27
2019-05-18T23:27:54.372Z,17.93
2019-05-18T23:30:23.101Z,18.90
2019-05-18T23:32:51.808Z,17.73
2019-05-18T23:35:20.384Z,17.53
2019-05-18T23:37:48.988Z,17.60
2019-05-18T23:40:18.778Z,17.40
2019-05-18T23:42:47.352Z,18.73
2019-05-18T23:45:16.090Z,17.67
2019-05-18T23:47:44.614Z,17.17
2019-05-18T23:50:13.498Z,17.77
2019-05-18T23:52:42.078Z,18.23
2019-05-18T23:55:10.972Z,18.17
2019-05-18T23:57:39.527Z,17.57
